sensor_id;sensor_type;location;lat;lon;timestamp;pressure;altitude;pressure_sealevel;temperature;humidity
16806;BME280;8520;50.102;20.010;2022-09-09T00:01:23;97842.28;;;19.12;100.00
16806;BME280;8520;50.102;20.010;2022-09-09T00:04:22;97834.31;;;19.37;100.00
16806;BME280;8520;50.102;20.010;2022-09-09T00:07:21;97847.97;;;19.06;100.00
16806;BME280;8520;50.102;20.010;2022-09-09T00:10:20;97847.50;;;19.49;100.00
16806;BME280;8520;50.102;20.010;2022-09-09T00:13:16;97836.50;;;19.51;100.00
16806;BME280;8520;50.102;20.010;2022-09-09T00:16:10;97843.44;;;19.37;100.00
16806;BME280;8520;50.102;20.010;2022-09-09T00:19:07;97843.47;;;19.03;100.00
16806;BME280;8520;50.102;20.010;2022-09-09T00:22:12;97848.84;;;19.56;100.00
16806;BME280;8520;50.102;20.010;2022-09-09T00:25:10;97845.44;;;18.95;100.00
16806;BME280;8520;50.102;20.010;2022-09-09T00:28:00;97848.03;;;19.48;100.00
16806;BME280;8520;50.102;20.010;2022-09-09T00:30:48;97839.25;;;19.10;100.00
16806;BME280;8520;50.102;20.010;2022-09-09T00:33:37;97843.19;;;18.80;100.00
16806;BME280;8520;50.102;20.010;2022-09-09T00:36:27;97845.53;;;19.02;100.00
16806;BME280;8520;50.102;20.010;2022-09-09T00:39:24;97844.94;;;18.57;100.00
16806;BME280;8520;50.102;20.010;2022-09-09T00:42:15;97842.03;;;18.75;100.00
16806;BME280;8520;50.102;20.010;2022-09-09T00:45:19;97839.66;;;18.53;100.00
16806;BME280;8520;50.102;20.010;2022-09-09T00:48:11;97847.25;;;18.92;100.00
16806;BME280;8520;50.102;20.010;2022-09-09T00:51:05;97857.28;;;18.74;100.00
16806;BME280;8520;50.102;20.010;2022-09-09T00:54:13;97856.00;;;18.75;100.00
16806;BME280;8520;50.102;20.010;2022-09-09T00:57:16;97866.16;;;18.46;100.00
16806;BME280;8520;50.102;20.010;2022-09-09T01:00:20;97859.19;;;18.53;100.00
16806;BME280;8520;50.102;20.010;2022-09-09T01:03:22;97852.66;;;18.77;100.00
16806;BME280;8520;50.102;20.010;2022-09-09T01:06:16;97863.28;;;18.26;100.00
16806;BME280;8520;50.102;20.010;2022-09-09T01:09:15;97869.59;;;18.26;100.00
16806;BME280;8520;50.102;20.010;2022-09-09T01:12:11;97864.78;;;18.13;100.00
16806;BME280;8520;50.102;20.010;2022-09-09T01:15:09;97870.25;;;18.45;100.00
16806;BME280;8520;50.102;20.010;2022-09-09T01:18:08;97870.91;;;18.52;100.00
16806;BME280;8520;50.102;20.010;2022-09-09T01:21:09;97872.53;;;18.21;100.00
16806;BME280;8520;50.102;20.010;2022-09-09T01:24:15;97874.22;;;18.37;100.00
16806;BME280;8520;50.102;20.010;2022-09-09T01:27:34;97873.69;;;18.25;100.00
16806;BME280;8520;50.102;20.010;2022-09-09T01:30:25;97889.78;;;18.59;100.00
16806;BME280;8520;50.102;20.010;2022-09-09T01:33:17;97887.00;;;18.59;100.00
16806;BME280;8520;50.102;20.010;2022-09-09T01:36:08;97881.97;;;18.70;100.00
16806;BME280;8520;50.102;20.010;2022-09-09T01:39:08;97903.69;;;18.19;100.00
16806;BME280;8520;50.102;20.010;2022-09-09T01:41:57;97902.88;;;18.24;100.00
16806;BME280;8520;50.102;20.010;2022-09-09T01:44:48;97905.03;;;18.58;100.00
16806;BME280;8520;50.102;20.010;2022-09-09T01:47:37;97903.06;;;18.92;100.00
16806;BME280;8520;50.102;20.010;2022-09-09T01:50:36;97902.47;;;18.73;100.00
16806;BME280;8520;50.102;20.010;2022-09-09T01:53:26;97906.41;;;19.04;100.00
16806;BME280;8520;50.102;20.010;2022-09-09T01:56:22;97912.19;;;19.06;100.00
16806;BME280;8520;50.102;20.010;2022-09-09T01:59:24;97917.47;;;18.83;100.00
16806;BME280;8520;50.102;20.010;2022-09-09T02:02:23;97914.38;;;18.87;100.00
16806;BME280;8520;50.102;20.010;2022-09-09T02:05:38;97914.78;;;19.04;100.00
16806;BME280;8520;50.102;20.010;2022-09-09T02:08:42;97920.81;;;18.68;100.00
16806;BME280;8520;50.102;20.010;2022-09-09T02:11:32;97922.06;;;19.20;100.00
16806;BME280;8520;50.102;20.010;2022-09-09T02:14:35;97939.09;;;19.30;100.00
16806;BME280;8520;50.102;20.010;2022-09-09T02:17:28;97943.44;;;19.04;100.00
16806;BME280;8520;50.102;20.010;2022-09-09T02:20:26;97935.72;;;18.97;100.00
16806;BME280;8520;50.102;20.010;2022-09-09T02:23:20;97939.50;;;18.87;100.00
16806;BME280;8520;50.102;20.010;2022-09-09T02:26:14;97938.19;;;18.88;100.00
16806;BME280;8520;50.102;20.010;2022-09-09T02:29:14;97939.38;;;18.79;100.00
16806;BME280;8520;50.102;20.010;2022-09-09T02:32:06;97933.16;;;18.73;100.00
16806;BME280;8520;50.102;20.010;2022-09-09T02:35:02;97946.88;;;18.97;100.00
16806;BME280;8520;50.102;20.010;2022-09-09T02:37:55;97951.81;;;18.38;100.00
16806;BME280;8520;50.102;20.010;2022-09-09T02:40:46;97951.47;;;18.42;100.00
16806;BME280;8520;50.102;20.010;2022-09-09T02:43:35;97951.19;;;18.59;100.00
16806;BME280;8520;50.102;20.010;2022-09-09T02:46:37;97965.50;;;18.23;100.00
16806;BME280;8520;50.102;20.010;2022-09-09T02:49:37;97971.50;;;18.86;100.00
16806;BME280;8520;50.102;20.010;2022-09-09T02:52:37;97964.25;;;18.51;100.00
16806;BME280;8520;50.102;20.010;2022-09-09T02:55:38;97962.97;;;18.38;100.00
16806;BME280;8520;50.102;20.010;2022-09-09T02:58:29;97967.25;;;18.53;100.00
16806;BME280;8520;50.102;20.010;2022-09-09T03:01:22;97969.19;;;17.99;100.00
16806;BME280;8520;50.102;20.010;2022-09-09T03:04:11;97973.03;;;18.55;100.00
16806;BME280;8520;50.102;20.010;2022-09-09T03:06:59;97981.69;;;18.25;100.00
16806;BME280;8520;50.102;20.010;2022-09-09T03:09:50;97979.38;;;18.42;100.00
16806;BME280;8520;50.102;20.010;2022-09-09T03:12:42;97983.22;;;17.94;100.00
16806;BME280;8520;50.102;20.010;2022-09-09T03:15:31;97989.00;;;18.28;100.00
16806;BME280;8520;50.102;20.010;2022-09-09T03:18:20;97979.75;;;17.87;100.00
16806;BME280;8520;50.102;20.010;2022-09-09T03:21:11;97982.66;;;18.27;100.00
16806;BME280;8520;50.102;20.010;2022-09-09T03:24:01;97973.19;;;18.04;100.00
16806;BME280;8520;50.102;20.010;2022-09-09T03:26:52;97978.13;;;17.60;100.00
16806;BME280;8520;50.102;20.010;2022-09-09T03:29:42;97974.34;;;18.08;100.00
16806;BME280;8520;50.102;20.010;2022-09-09T03:32:36;97976.25;;;17.30;100.00
16806;BME280;8520;50.102;20.010;2022-09-09T03:35:26;97963.97;;;17.20;100.00
16806;BME280;8520;50.102;20.010;2022-09-09T03:38:14;97983.69;;;17.22;100.00
16806;BME280;8520;50.102;20.010;2022-09-09T03:41:03;97975.94;;;17.53;100.00
16806;BME280;8520;50.102;20.010;2022-09-09T03:43:56;97979.19;;;17.38;100.00
16806;BME280;8520;50.102;20.010;2022-09-09T03:46:46;97983.09;;;17.67;100.00
16806;BME280;8520;50.102;20.010;2022-09-09T03:49:35;97986.44;;;17.98;100.00
16806;BME280;8520;50.102;20.010;2022-09-09T03:52:24;97984.50;;;17.74;100.00
16806;BME280;8520;50.102;20.010;2022-09-09T03:55:13;97989.84;;;17.53;100.00
16806;BME280;8520;50.102;20.010;2022-09-09T03:58:02;97994.88;;;17.92;100.00
16806;BME280;8520;50.102;20.010;2022-09-09T04:00:56;97995.66;;;17.93;100.00
16806;BME280;8520;50.102;20.010;2022-09-09T04:03:46;97995.59;;;17.79;100.00
16806;BME280;8520;50.102;20.010;2022-09-09T04:06:35;97994.31;;;17.80;100.00
16806;BME280;8520;50.102;20.010;2022-09-09T04:09:23;98005.66;;;17.82;100.00
16806;BME280;8520;50.102;20.010;2022-09-09T04:12:12;98000.25;;;18.22;100.00
16806;BME280;8520;50.102;20.010;2022-09-09T04:15:01;97996.91;;;17.91;100.00
16806;BME280;8520;50.102;20.010;2022-09-09T04:17:52;98002.81;;;17.88;100.00
16806;BME280;8520;50.102;20.010;2022-09-09T04:20:41;98002.59;;;17.29;100.00
16806;BME280;8520;50.102;20.010;2022-09-09T04:23:30;98016.75;;;17.69;100.00
16806;BME280;8520;50.102;20.010;2022-09-09T04:26:21;98003.25;;;17.54;100.00
16806;BME280;8520;50.102;20.010;2022-09-09T04:29:09;98019.28;;;17.11;100.00
16806;BME280;8520;50.102;20.010;2022-09-09T04:31:59;98007.03;;;17.38;100.00
16806;BME280;8520;50.102;20.010;2022-09-09T04:34:50;98002.81;;;17.31;100.00
16806;BME280;8520;50.102;20.010;2022-09-09T04:37:38;97999.34;;;17.44;100.00
16806;BME280;8520;50.102;20.010;2022-09-09T04:40:27;97996.94;;;17.54;100.00
16806;BME280;8520;50.102;20.010;2022-09-09T04:43:15;97994.59;;;17.20;100.00
16806;BME280;8520;50.102;20.010;2022-09-09T04:46:05;97999.44;;;16.95;100.00
16806;BME280;8520;50.102;20.010;2022-09-09T04:48:53;97993.78;;;17.44;100.00
16806;BME280;8520;50.102;20.010;2022-09-09T04:51:48;98003.63;;;17.64;100.00
16806;BME280;8520;50.102;20.010;2022-09-09T04:54:37;98001.09;;;17.85;100.00
16806;BME280;8520;50.102;20.010;2022-09-09T04:57:26;97999.56;;;18.03;100.00
16806;BME280;8520;50.102;20.010;2022-09-09T05:00:16;98005.44;;;17.43;100.00
16806;BME280;8520;50.102;20.010;2022-09-09T05:03:06;98005.44;;;17.61;100.00
16806;BME280;8520;50.102;20.010;2022-09-09T05:06:02;97994.34;;;18.26;100.00
16806;BME280;8520;50.102;20.010;2022-09-09T05:08:52;98001.63;;;18.15;100.00
16806;BME280;8520;50.102;20.010;2022-09-09T05:11:46;97999.13;;;18.44;100.00
16806;BME280;8520;50.102;20.010;2022-09-09T05:14:48;98009.38;;;18.81;100.00
16806;BME280;8520;50.102;20.010;2022-09-09T05:17:37;98009.91;;;18.66;100.00
16806;BME280;8520;50.102;20.010;2022-09-09T05:20:25;98022.50;;;18.86;100.00
16806;BME280;8520;50.102;20.010;2022-09-09T05:23:14;98019.50;;;18.84;100.00
16806;BME280;8520;50.102;20.010;2022-09-09T05:26:05;98019.69;;;18.86;100.00
16806;BME280;8520;50.102;20.010;2022-09-09T05:28:55;98021.50;;;19.23;100.00
16806;BME280;8520;50.102;20.010;2022-09-09T05:31:44;98025.03;;;18.71;100.00
16806;BME280;8520;50.102;20.010;2022-09-09T05:34:34;98028.44;;;18.64;100.00
16806;BME280;8520;50.102;20.010;2022-09-09T05:37:24;98027.69;;;18.63;100.00
16806;BME280;8520;50.102;20.010;2022-09-09T05:40:13;98039.97;;;18.09;100.00
16806;BME280;8520;50.102;20.010;2022-09-09T05:43:03;98044.41;;;18.50;100.00
16806;BME280;8520;50.102;20.010;2022-09-09T05:45:59;98044.81;;;18.09;100.00
16806;BME280;8520;50.102;20.010;2022-09-09T05:48:51;98036.28;;;18.20;100.00
16806;BME280;8520;50.102;20.010;2022-09-09T05:51:45;98031.50;;;18.02;100.00
16806;BME280;8520;50.102;20.010;2022-09-09T05:54:37;98034.94;;;18.40;100.00
16806;BME280;8520;50.102;20.010;2022-09-09T05:57:26;98034.91;;;17.95;100.00
16806;BME280;8520;50.102;20.010;2022-09-09T06:00:16;98036.31;;;17.82;100.00
16806;BME280;8520;50.102;20.010;2022-09-09T06:03:06;98036.97;;;18.07;100.00
16806;BME280;8520;50.102;20.010;2022-09-09T06:05:58;98047.16;;;18.37;100.00
16806;BME280;8520;50.102;20.010;2022-09-09T06:08:50;98044.47;;;18.31;100.00
16806;BME280;8520;50.102;20.010;2022-09-09T06:11:40;98044.75;;;18.60;100.00
16806;BME280;8520;50.102;20.010;2022-09-09T06:14:29;98049.44;;;18.52;100.00
16806;BME280;8520;50.102;20.010;2022-09-09T06:17:20;98064.13;;;17.88;100.00
16806;BME280;8520;50.102;20.010;2022-09-09T06:20:09;98062.94;;;17.83;100.00
16806;BME280;8520;50.102;20.010;2022-09-09T06:22:58;98062.13;;;18.53;100.00
16806;BME280;8520;50.102;20.010;2022-09-09T06:25:46;98072.41;;;17.94;100.00
16806;BME280;8520;50.102;20.010;2022-09-09T06:28:36;98077.63;;;18.03;100.00
16806;BME280;8520;50.102;20.010;2022-09-09T06:31:26;98068.41;;;17.89;100.00
16806;BME280;8520;50.102;20.010;2022-09-09T06:34:22;98067.66;;;18.07;100.00
16806;BME280;8520;50.102;20.010;2022-09-09T06:37:15;98071.16;;;18.59;100.00
16806;BME280;8520;50.102;20.010;2022-09-09T06:40:08;98072.75;;;18.22;100.00
16806;BME280;8520;50.102;20.010;2022-09-09T06:42:59;98070.00;;;18.03;100.00
16806;BME280;8520;50.102;20.010;2022-09-09T06:45:55;98065.22;;;18.49;100.00
16806;BME280;8520;50.102;20.010;2022-09-09T06:48:45;98075.63;;;18.16;100.00
16806;BME280;8520;50.102;20.010;2022-09-09T06:51:37;98068.31;;;18.13;100.00
16806;BME280;8520;50.102;20.010;2022-09-09T06:54:31;98072.44;;;18.58;100.00
16806;BME280;8520;50.102;20.010;2022-09-09T06:57:20;98065.53;;;18.91;98.16
16806;BME280;8520;50.102;20.010;2022-09-09T07:00:30;98075.75;;;18.88;99.08
16806;BME280;8520;50.102;20.010;2022-09-09T07:03:18;98072.28;;;18.18;100.00
16806;BME280;8520;50.102;20.010;2022-09-09T07:06:09;98071.34;;;17.97;100.00
16806;BME280;8520;50.102;20.010;2022-09-09T07:09:05;98073.59;;;18.17;100.00
16806;BME280;8520;50.102;20.010;2022-09-09T07:11:53;98072.06;;;18.16;99.61
16806;BME280;8520;50.102;20.010;2022-09-09T07:14:43;98074.78;;;18.54;98.40
16806;BME280;8520;50.102;20.010;2022-09-09T07:17:32;98072.44;;;19.03;95.61
16806;BME280;8520;50.102;20.010;2022-09-09T07:20:20;98079.59;;;18.53;98.15
16806;BME280;8520;50.102;20.010;2022-09-09T07:23:10;98072.50;;;18.39;98.21
16806;BME280;8520;50.102;20.010;2022-09-09T07:25:59;98074.69;;;18.59;96.76
16806;BME280;8520;50.102;20.010;2022-09-09T07:28:48;98076.19;;;18.47;96.91
16806;BME280;8520;50.102;20.010;2022-09-09T07:31:38;98064.22;;;18.65;97.45
16806;BME280;8520;50.102;20.010;2022-09-09T07:34:30;98067.28;;;18.62;96.69
16806;BME280;8520;50.102;20.010;2022-09-09T07:37:19;98069.91;;;18.41;98.56
16806;BME280;8520;50.102;20.010;2022-09-09T07:40:08;98068.22;;;18.51;98.21
16806;BME280;8520;50.102;20.010;2022-09-09T07:42:59;98063.59;;;19.65;95.27
16806;BME280;8520;50.102;20.010;2022-09-09T07:45:47;98070.06;;;19.07;94.39
16806;BME280;8520;50.102;20.010;2022-09-09T07:48:37;98057.59;;;19.61;95.08
16806;BME280;8520;50.102;20.010;2022-09-09T07:51:28;98072.97;;;19.41;93.33
16806;BME280;8520;50.102;20.010;2022-09-09T07:54:18;98077.56;;;19.52;93.20
16806;BME280;8520;50.102;20.010;2022-09-09T07:57:11;98075.97;;;19.43;92.99
16806;BME280;8520;50.102;20.010;2022-09-09T08:00:03;98079.28;;;19.68;92.03
16806;BME280;8520;50.102;20.010;2022-09-09T08:02:58;98076.06;;;19.64;90.07
16806;BME280;8520;50.102;20.010;2022-09-09T08:05:49;98072.28;;;20.43;84.60
16806;BME280;8520;50.102;20.010;2022-09-09T08:08:39;98073.13;;;20.38;85.39
16806;BME280;8520;50.102;20.010;2022-09-09T08:11:31;98082.44;;;20.74;84.76
16806;BME280;8520;50.102;20.010;2022-09-09T08:14:25;98086.31;;;20.92;84.14
16806;BME280;8520;50.102;20.010;2022-09-09T08:17:15;98081.91;;;20.55;86.57
16806;BME280;8520;50.102;20.010;2022-09-09T08:20:05;98084.56;;;20.61;86.27
16806;BME280;8520;50.102;20.010;2022-09-09T08:22:55;98093.06;;;20.34;84.24
16806;BME280;8520;50.102;20.010;2022-09-09T08:25:44;98093.56;;;20.88;84.13
16806;BME280;8520;50.102;20.010;2022-09-09T08:28:33;98095.19;;;21.33;78.84
16806;BME280;8520;50.102;20.010;2022-09-09T08:31:23;98097.31;;;21.40;80.12
16806;BME280;8520;50.102;20.010;2022-09-09T08:34:13;98097.78;;;21.59;80.82
16806;BME280;8520;50.102;20.010;2022-09-09T08:37:02;98091.25;;;22.08;79.19
16806;BME280;8520;50.102;20.010;2022-09-09T08:39:56;98098.53;;;20.40;79.90
16806;BME280;8520;50.102;20.010;2022-09-09T08:42:49;98106.47;;;21.19;79.51
16806;BME280;8520;50.102;20.010;2022-09-09T08:45:50;98094.84;;;21.36;78.89
16806;BME280;8520;50.102;20.010;2022-09-09T08:48:48;98117.22;;;21.28;78.49
16806;BME280;8520;50.102;20.010;2022-09-09T08:51:41;98115.16;;;21.29;79.38
16806;BME280;8520;50.102;20.010;2022-09-09T08:54:34;98119.97;;;21.49;77.15
16806;BME280;8520;50.102;20.010;2022-09-09T08:57:39;98104.72;;;22.09;76.07
16806;BME280;8520;50.102;20.010;2022-09-09T09:00:34;98105.50;;;22.18;76.32
16806;BME280;8520;50.102;20.010;2022-09-09T09:03:33;98118.25;;;21.46;78.31
16806;BME280;8520;50.102;20.010;2022-09-09T09:06:36;98117.13;;;22.29;74.00
16806;BME280;8520;50.102;20.010;2022-09-09T09:09:37;98112.50;;;22.70;72.21
16806;BME280;8520;50.102;20.010;2022-09-09T09:12:37;98107.47;;;22.68;73.77
16806;BME280;8520;50.102;20.010;2022-09-09T09:15:32;98115.34;;;22.93;69.81
16806;BME280;8520;50.102;20.010;2022-09-09T09:18:24;98118.16;;;23.01;68.72
16806;BME280;8520;50.102;20.010;2022-09-09T09:21:16;98120.94;;;22.78;70.90
16806;BME280;8520;50.102;20.010;2022-09-09T09:24:16;98122.88;;;22.16;72.24
16806;BME280;8520;50.102;20.010;2022-09-09T09:27:12;98110.25;;;22.76;68.94
16806;BME280;8520;50.102;20.010;2022-09-09T09:30:14;98125.25;;;23.09;67.29
16806;BME280;8520;50.102;20.010;2022-09-09T09:33:18;98113.75;;;23.53;66.72
16806;BME280;8520;50.102;20.010;2022-09-09T09:36:09;98119.44;;;22.69;70.20
16806;BME280;8520;50.102;20.010;2022-09-09T09:39:02;98123.19;;;23.17;68.39
16806;BME280;8520;50.102;20.010;2022-09-09T09:42:17;98118.88;;;23.16;68.10
16806;BME280;8520;50.102;20.010;2022-09-09T09:45:16;98107.72;;;23.72;66.19
16806;BME280;8520;50.102;20.010;2022-09-09T09:48:11;98104.19;;;23.48;66.48
16806;BME280;8520;50.102;20.010;2022-09-09T09:51:05;98116.94;;;23.49;64.34
16806;BME280;8520;50.102;20.010;2022-09-09T09:54:14;98110.66;;;23.03;65.61
16806;BME280;8520;50.102;20.010;2022-09-09T09:57:09;98114.75;;;23.17;65.64
16806;BME280;8520;50.102;20.010;2022-09-09T10:00:13;98116.94;;;23.65;63.20
16806;BME280;8520;50.102;20.010;2022-09-09T10:03:20;98119.38;;;23.68;62.97
16806;BME280;8520;50.102;20.010;2022-09-09T10:06:11;98111.78;;;24.59;60.77
16806;BME280;8520;50.102;20.010;2022-09-09T10:08:59;98111.97;;;25.11;61.32
16806;BME280;8520;50.102;20.010;2022-09-09T10:11:55;98112.66;;;25.19;60.32
16806;BME280;8520;50.102;20.010;2022-09-09T10:14:51;98111.34;;;24.70;60.43
16806;BME280;8520;50.102;20.010;2022-09-09T10:17:54;98116.63;;;24.66;61.93
16806;BME280;8520;50.102;20.010;2022-09-09T10:20:54;98101.03;;;25.49;61.34
16806;BME280;8520;50.102;20.010;2022-09-09T10:23:58;98104.69;;;25.08;59.96
16806;BME280;8520;50.102;20.010;2022-09-09T10:26:54;98107.75;;;25.19;58.23
16806;BME280;8520;50.102;20.010;2022-09-09T10:29:57;98110.22;;;24.00;62.37
16806;BME280;8520;50.102;20.010;2022-09-09T10:32:54;98114.34;;;24.72;61.48
16806;BME280;8520;50.102;20.010;2022-09-09T10:35:53;98106.44;;;25.20;58.83
16806;BME280;8520;50.102;20.010;2022-09-09T10:38:48;98112.69;;;25.53;58.02
16806;BME280;8520;50.102;20.010;2022-09-09T10:41:45;98114.22;;;24.87;59.43
16806;BME280;8520;50.102;20.010;2022-09-09T10:44:50;98113.16;;;25.25;59.85
16806;BME280;8520;50.102;20.010;2022-09-09T10:47:59;98125.53;;;24.55;59.95
16806;BME280;8520;50.102;20.010;2022-09-09T10:50:56;98119.97;;;25.57;57.78
16806;BME280;8520;50.102;20.010;2022-09-09T10:54:05;98113.44;;;25.71;56.09
16806;BME280;8520;50.102;20.010;2022-09-09T10:57:00;98124.31;;;26.19;55.67
16806;BME280;8520;50.102;20.010;2022-09-09T10:59:54;98114.09;;;26.24;55.17
16806;BME280;8520;50.102;20.010;2022-09-09T11:02:50;98119.56;;;25.43;55.84
16806;BME280;8520;50.102;20.010;2022-09-09T11:05:43;98107.34;;;25.40;55.73
16806;BME280;8520;50.102;20.010;2022-09-09T11:08:36;98115.41;;;25.44;56.49
16806;BME280;8520;50.102;20.010;2022-09-09T11:11:30;98120.78;;;25.32;56.50
16806;BME280;8520;50.102;20.010;2022-09-09T11:14:26;98117.25;;;24.82;58.79
16806;BME280;8520;50.102;20.010;2022-09-09T11:17:26;98120.00;;;25.14;56.54
16806;BME280;8520;50.102;20.010;2022-09-09T11:20:18;98112.50;;;26.30;54.53
16806;BME280;8520;50.102;20.010;2022-09-09T11:23:12;98121.19;;;26.69;52.38
16806;BME280;8520;50.102;20.010;2022-09-09T11:26:03;98109.91;;;26.42;52.69
16806;BME280;8520;50.102;20.010;2022-09-09T11:29:03;98118.06;;;25.76;53.82
16806;BME280;8520;50.102;20.010;2022-09-09T11:32:03;98118.34;;;25.88;54.14
16806;BME280;8520;50.102;20.010;2022-09-09T11:35:04;98115.00;;;25.47;54.79
16806;BME280;8520;50.102;20.010;2022-09-09T11:38:05;98108.59;;;26.43;51.81
16806;BME280;8520;50.102;20.010;2022-09-09T11:40:59;98110.81;;;26.45;52.83
16806;BME280;8520;50.102;20.010;2022-09-09T11:43:50;98115.91;;;26.29;53.09
16806;BME280;8520;50.102;20.010;2022-09-09T11:46:40;98110.63;;;26.70;50.68
16806;BME280;8520;50.102;20.010;2022-09-09T11:49:39;98114.56;;;26.47;51.56
16806;BME280;8520;50.102;20.010;2022-09-09T11:52:38;98109.50;;;27.38;50.22
16806;BME280;8520;50.102;20.010;2022-09-09T11:55:30;98099.69;;;27.88;52.19
16806;BME280;8520;50.102;20.010;2022-09-09T11:58:22;98114.75;;;28.60;51.05
16806;BME280;8520;50.102;20.010;2022-09-09T12:01:28;98104.44;;;29.27;50.23
16806;BME280;8520;50.102;20.010;2022-09-09T12:04:30;98106.41;;;29.45;49.09
16806;BME280;8520;50.102;20.010;2022-09-09T12:07:26;98104.25;;;29.56;47.82
16806;BME280;8520;50.102;20.010;2022-09-09T12:10:22;98105.59;;;30.09;47.19
16806;BME280;8520;50.102;20.010;2022-09-09T12:13:16;98113.38;;;29.87;47.54
16806;BME280;8520;50.102;20.010;2022-09-09T12:16:29;98108.03;;;30.59;47.47
16806;BME280;8520;50.102;20.010;2022-09-09T12:19:21;98103.41;;;29.98;47.62
16806;BME280;8520;50.102;20.010;2022-09-09T12:22:21;98108.38;;;28.91;47.78
16806;BME280;8520;50.102;20.010;2022-09-09T12:25:20;98107.88;;;27.64;50.45
16806;BME280;8520;50.102;20.010;2022-09-09T12:28:17;98094.84;;;28.39;50.24
16806;BME280;8520;50.102;20.010;2022-09-09T12:31:10;98111.16;;;26.95;51.57
16806;BME280;8520;50.102;20.010;2022-09-09T12:34:12;98118.16;;;26.94;52.11
16806;BME280;8520;50.102;20.010;2022-09-09T12:37:06;98104.75;;;27.80;50.35
16806;BME280;8520;50.102;20.010;2022-09-09T12:40:00;98096.97;;;28.19;49.72
16806;BME280;8520;50.102;20.010;2022-09-09T12:42:49;98100.19;;;28.44;49.40
16806;BME280;8520;50.102;20.010;2022-09-09T12:45:40;98096.75;;;28.46;49.30
16806;BME280;8520;50.102;20.010;2022-09-09T12:48:33;98098.63;;;27.93;50.23
16806;BME280;8520;50.102;20.010;2022-09-09T12:51:28;98094.25;;;28.21;50.25
16806;BME280;8520;50.102;20.010;2022-09-09T12:54:17;98097.97;;;28.33;50.33
16806;BME280;8520;50.102;20.010;2022-09-09T12:57:10;98095.16;;;28.14;49.94
16806;BME280;8520;50.102;20.010;2022-09-09T13:00:06;98096.75;;;28.46;49.76
16806;BME280;8520;50.102;20.010;2022-09-09T13:02:58;98099.72;;;28.48;49.47
16806;BME280;8520;50.102;20.010;2022-09-09T13:05:48;98099.72;;;28.48;48.28
16806;BME280;8520;50.102;20.010;2022-09-09T13:08:38;98095.41;;;28.47;49.95
16806;BME280;8520;50.102;20.010;2022-09-09T13:11:31;98089.97;;;28.10;51.12
16806;BME280;8520;50.102;20.010;2022-09-09T13:14:28;98091.25;;;28.38;50.21
16806;BME280;8520;50.102;20.010;2022-09-09T13:17:20;98086.16;;;28.77;48.15
16806;BME280;8520;50.102;20.010;2022-09-09T13:20:16;98079.19;;;28.69;47.78
16806;BME280;8520;50.102;20.010;2022-09-09T13:23:05;98082.78;;;28.28;50.08
16806;BME280;8520;50.102;20.010;2022-09-09T13:25:56;98077.47;;;28.85;49.03
16806;BME280;8520;50.102;20.010;2022-09-09T13:28:45;98075.50;;;28.97;46.84
16806;BME280;8520;50.102;20.010;2022-09-09T13:31:36;98063.59;;;28.89;46.91
16806;BME280;8520;50.102;20.010;2022-09-09T13:34:27;98076.75;;;28.84;47.17
16806;BME280;8520;50.102;20.010;2022-09-09T13:37:21;98068.94;;;28.95;46.11
16806;BME280;8520;50.102;20.010;2022-09-09T13:40:17;98088.81;;;27.84;48.41
16806;BME280;8520;50.102;20.010;2022-09-09T13:43:17;98079.81;;;28.17;48.78
16806;BME280;8520;50.102;20.010;2022-09-09T13:46:25;98073.53;;;28.28;47.35
16806;BME280;8520;50.102;20.010;2022-09-09T13:49:21;98063.63;;;27.69;50.16
16806;BME280;8520;50.102;20.010;2022-09-09T13:52:11;98066.91;;;27.65;50.98
16806;BME280;8520;50.102;20.010;2022-09-09T13:55:00;98066.56;;;27.03;51.99
16806;BME280;8520;50.102;20.010;2022-09-09T13:57:53;98065.84;;;27.12;48.86
16806;BME280;8520;50.102;20.010;2022-09-09T14:00:42;98071.66;;;27.24;50.56
16806;BME280;8520;50.102;20.010;2022-09-09T14:03:31;98071.34;;;27.10;50.29
16806;BME280;8520;50.102;20.010;2022-09-09T14:06:21;98067.34;;;27.42;50.94
16806;BME280;8520;50.102;20.010;2022-09-09T14:09:12;98060.78;;;27.59;49.15
16806;BME280;8520;50.102;20.010;2022-09-09T14:12:03;98064.94;;;27.97;49.27
16806;BME280;8520;50.102;20.010;2022-09-09T14:14:51;98062.09;;;27.97;50.27
16806;BME280;8520;50.102;20.010;2022-09-09T14:17:41;98057.94;;;28.08;49.94
16806;BME280;8520;50.102;20.010;2022-09-09T14:20:30;98053.22;;;28.41;49.09
16806;BME280;8520;50.102;20.010;2022-09-09T14:23:18;98061.44;;;28.27;48.52
16806;BME280;8520;50.102;20.010;2022-09-09T14:26:09;98058.47;;;28.16;48.12
16806;BME280;8520;50.102;20.010;2022-09-09T14:28:57;98061.25;;;26.71;51.24
16806;BME280;8520;50.102;20.010;2022-09-09T14:31:48;98058.50;;;26.44;51.10
16806;BME280;8520;50.102;20.010;2022-09-09T14:34:37;98062.63;;;26.16;51.98
16806;BME280;8520;50.102;20.010;2022-09-09T14:37:27;98044.38;;;26.17;54.15
16806;BME280;8520;50.102;20.010;2022-09-09T14:40:15;98038.38;;;26.96;52.45
16806;BME280;8520;50.102;20.010;2022-09-09T14:43:04;98038.91;;;27.21;51.65
16806;BME280;8520;50.102;20.010;2022-09-09T14:45:53;98042.53;;;26.85;52.38
16806;BME280;8520;50.102;20.010;2022-09-09T14:48:41;98040.84;;;27.09;51.56
16806;BME280;8520;50.102;20.010;2022-09-09T14:51:32;98032.22;;;27.55;51.18
16806;BME280;8520;50.102;20.010;2022-09-09T14:54:21;98048.13;;;26.56;50.73
16806;BME280;8520;50.102;20.010;2022-09-09T14:57:10;98041.19;;;26.76;50.68
16806;BME280;8520;50.102;20.010;2022-09-09T14:59:58;98031.00;;;27.48;50.61
16806;BME280;8520;50.102;20.010;2022-09-09T15:02:46;98029.81;;;27.13;50.78
16806;BME280;8520;50.102;20.010;2022-09-09T15:05:36;98025.28;;;28.06;49.65
16806;BME280;8520;50.102;20.010;2022-09-09T15:08:25;98030.06;;;27.94;48.96
16806;BME280;8520;50.102;20.010;2022-09-09T15:11:14;98030.88;;;27.46;50.73
16806;BME280;8520;50.102;20.010;2022-09-09T15:14:03;98029.38;;;27.36;49.45